Time;durP1;ratioP1;P1;durP2;ratioP2;P2;SDS_P1;SDS_P2;PMS_P1;PMS_P2;Temp;Humidity;BMP_temperature;BMP_pressure;BME280_temperature;BME280_humidity;BME280_pressure;Samples;Min_cycle;Max_cycle;Signal;HPM_P1;HPM_P2
2023/05/15 00:00:28;;;;;;;;;;;;;;;;;;5094020;28;19962;-71
2023/05/15 00:02:55;;;;;;;;;;;;;;;;;;5093696;28;20362;-71
2023/05/15 00:05:21;;;;;;;;;;;;;;;;;;5093708;28;20408;-70
2023/05/15 00:07:47;;;;;;;;;;;;;;;;;;5094244;28;19955;-70
2023/05/15 00:10:13;;;;;;;;;;;;;;;;;;5093908;28;19956;-71
2023/05/15 00:12:39;;;;;;;;;;;;;;;;;;5093618;28;20356;-71
2023/05/15 00:15:05;;;;;;;;;;;;;;;;;;5093887;28;19959;-71
2023/05/15 00:17:31;;;;;;;;;;;;;;;;;;5093515;28;20400;-71
2023/05/15 00:19:58;;;;;;;;;;;;;;;;;;5093868;28;19965;-70
2023/05/15 00:22:25;;;;;;;;;;;;;;;;;;5075454;28;19959;-71
2023/05/15 00:24:50;;;;;;;;;;;;;;;;;;5093489;28;19955;-71
2023/05/15 00:27:16;;;;;;;;;;;;;;;;;;5094875;28;19955;-71
2023/05/15 00:29:42;;;;;;;;;;;;;;;;;;5097528;28;20458;-71
2023/05/15 00:32:08;;;;;;;;;;;;;;;;;;5097451;28;19978;-70
2023/05/15 00:34:34;;;;;;;;;;;;;;;;;;5097489;28;20328;-71
2023/05/15 00:37:00;;;;;;;;;;;;;;;;;;5097915;28;20332;-71
2023/05/15 00:39:26;;;;;;;;;;;;;;;;;;5097366;28;19995;-70
2023/05/15 00:41:52;;;;;;;;;;;;;;;;;;5097352;28;20375;-70
2023/05/15 00:44:19;;;;;;;;;;;;;;;;;;5097259;28;19961;-70
2023/05/15 00:46:44;;;;;;;;;;;;;;;;;;5097511;28;20004;-71
2023/05/15 00:49:12;;;;;;;;;;;;;;;;;;5078964;28;19963;-70
2023/05/15 00:51:38;;;;;;;;;;;;;;;;;;5097156;28;20004;-70
2023/05/15 00:54:04;;;;;;;;;;;;;;;;;;5097114;28;19955;-71
2023/05/15 00:56:30;;;;;;;;;;;;;;;;;;5097534;28;19975;-71
2023/05/15 00:58:56;;;;;;;;;;;;;;;;;;5096990;28;19981;-70
2023/05/15 01:01:24;;;;;;;;;;;;;;;;;;5096977;28;20488;-71
2023/05/15 01:03:50;;;;;;;;;;;;;;;;;;5096865;28;19956;-70
2023/05/15 01:06:16;;;;;;;;;;;;;;;;;;5096824;28;19966;-71
2023/05/15 01:08:42;;;;;;;;;;;;;;;;;;5097322;28;20006;-71
2023/05/15 01:11:08;;;;;;;;;;;;;;;;;;5097045;28;19966;-71
2023/05/15 01:13:34;;;;;;;;;;;;;;;;;;5096734;28;20543;-70
2023/05/15 01:16:00;;;;;;;;;;;;;;;;;;5096631;28;20454;-70
2023/05/15 01:18:31;;;;;;;;;;;;;;;;;;5096879;28;20012;-70
2023/05/15 01:20:56;;;;;;;;;;;;;;;;;;5096859;28;20013;-70
2023/05/15 01:23:23;;;;;;;;;;;;;;;;;;5097096;28;19955;-70
2023/05/15 01:25:52;;;;;;;;;;;;;;;;;;5096437;28;20328;-71
2023/05/15 01:28:19;;;;;;;;;;;;;;;;;;5096398;28;20042;-70
2023/05/15 01:30:45;;;;;;;;;;;;;;;;;;5096327;28;19977;-70
2023/05/15 01:33:11;;;;;;;;;;;;;;;;;;5096330;28;20005;-70
2023/05/15 01:35:37;;;;;;;;;;;;;;;;;;5096318;28;19987;-71
2023/05/15 01:38:03;;;;;;;;;;;;;;;;;;5096341;28;20024;-70
2023/05/15 01:40:29;;;;;;;;;;;;;;;;;;5095064;28;19990;-71
2023/05/15 01:42:55;;;;;;;;;;;;;;;;;;5096691;28;19955;-71
2023/05/15 01:45:21;;;;;;;;;;;;;;;;;;5096122;28;19962;-71
2023/05/15 01:47:47;;;;;;;;;;;;;;;;;;5096631;28;19961;-70
2023/05/15 01:50:13;;;;;;;;;;;;;;;;;;5096034;28;20332;-71
2023/05/15 01:52:38;;;;;;;;;;;;;;;;;;5077840;28;20031;-71
2023/05/15 01:55:04;;;;;;;;;;;;;;;;;;5095884;28;19955;-71
2023/05/15 01:57:30;;;;;;;;;;;;;;;;;;5096374;28;20070;-71
2023/05/15 01:59:56;;;;;;;;;;;;;;;;;;5095836;28;20416;-71
2023/05/15 02:02:22;;;;;;;;;;;;;;;;;;5095798;28;20009;-71
2023/05/15 02:04:48;;;;;;;;;;;;;;;;;;5096009;28;19959;-71
2023/05/15 02:07:14;;;;;;;;;;;;;;;;;;5095658;28;20309;-70
2023/05/15 02:09:40;;;;;;;;;;;;;;;;;;5096488;28;19962;-70
2023/05/15 02:12:06;;;;;;;;;;;;;;;;;;5095586;28;20021;-71
2023/05/15 02:14:32;;;;;;;;;;;;;;;;;;5077380;28;19959;-70
2023/05/15 02:16:57;;;;;;;;;;;;;;;;;;5095677;28;19982;-70
2023/05/15 02:19:23;;;;;;;;;;;;;;;;;;5095413;28;20427;-70
2023/05/15 02:21:50;;;;;;;;;;;;;;;;;;5095388;28;19962;-71
2023/05/15 02:24:15;;;;;;;;;;;;;;;;;;5095318;28;19959;-70
2023/05/15 02:26:41;;;;;;;;;;;;;;;;;;5095580;28;19956;-70
2023/05/15 02:29:07;;;;;;;;;;;;;;;;;;5095539;28;19996;-71
2023/05/15 02:31:33;;;;;;;;;;;;;;;;;;5095126;28;20040;-71
2023/05/15 02:33:59;;;;;;;;;;;;;;;;;;5095709;28;19959;-71
2023/05/15 02:36:25;;;;;;;;;;;;;;;;;;5095048;28;19990;-70
2023/05/15 02:38:51;;;;;;;;;;;;;;;;;;5095122;28;20085;-70
2023/05/15 02:41:17;;;;;;;;;;;;;;;;;;5095597;28;20009;-71
2023/05/15 02:43:43;;;;;;;;;;;;;;;;;;5095233;28;20045;-70
2023/05/15 02:46:09;;;;;;;;;;;;;;;;;;5095206;28;19955;-70
2023/05/15 02:48:35;;;;;;;;;;;;;;;;;;5094852;28;19962;-71
2023/05/15 02:51:01;;;;;;;;;;;;;;;;;;5095119;28;20324;-71
2023/05/15 02:53:26;;;;;;;;;;;;;;;;;;5095075;28;19959;-70
2023/05/15 02:55:52;;;;;;;;;;;;;;;;;;5094686;28;19955;-70
2023/05/15 02:58:18;;;;;;;;;;;;;;;;;;5095259;28;20045;-71
2023/05/15 03:00:44;;;;;;;;;;;;;;;;;;5094654;28;20037;-70
2023/05/15 03:03:10;;;;;;;;;;;;;;;;;;5095205;28;20380;-71
2023/05/15 03:05:36;;;;;;;;;;;;;;;;;;5094872;28;19959;-71
2023/05/15 03:08:02;;;;;;;;;;;;;;;;;;5095041;28;19955;-71
2023/05/15 03:10:28;;;;;;;;;;;;;;;;;;5094472;28;20002;-71
2023/05/15 03:12:54;;;;;;;;;;;;;;;;;;5095014;28;20400;-71
2023/05/15 03:15:20;;;;;;;;;;;;;;;;;;5094405;28;19978;-71
2023/05/15 03:17:45;;;;;;;;;;;;;;;;;;5094291;28;19978;-71
2023/05/15 03:20:13;;;;;;;;;;;;;;;;;;5094316;28;19955;-71
2023/05/15 03:22:39;;;;;;;;;;;;;;;;;;5094255;28;19955;-70
2023/05/15 03:25:05;;;;;;;;;;;;;;;;;;5094503;28;20046;-70
2023/05/15 03:27:31;;;;;;;;;;;;;;;;;;5076063;28;20397;-71
2023/05/15 03:29:57;;;;;;;;;;;;;;;;;;5075990;28;20416;-70
2023/05/15 03:32:22;;;;;;;;;;;;;;;;;;5094088;28;20003;-70
2023/05/15 03:34:48;;;;;;;;;;;;;;;;;;5094085;28;19963;-71
2023/05/15 03:37:14;;;;;;;;;;;;;;;;;;5094548;28;20504;-70
2023/05/15 03:39:40;;;;;;;;;;;;;;;;;;5093785;28;20085;-70
2023/05/15 03:42:06;;;;;;;;;;;;;;;;;;5094223;28;19998;-71
2023/05/15 03:44:32;;;;;;;;;;;;;;;;;;5093914;28;19955;-71
2023/05/15 03:46:58;;;;;;;;;;;;;;;;;;5094453;28;20046;-70
2023/05/15 03:49:24;;;;;;;;;;;;;;;;;;5093887;28;20097;-71
2023/05/15 03:51:50;;;;;;;;;;;;;;;;;;5093846;28;19955;-71
2023/05/15 03:54:15;;;;;;;;;;;;;;;;;;5094355;28;19959;-70
2023/05/15 03:56:41;;;;;;;;;;;;;;;;;;5075599;28;19979;-71
2023/05/15 03:59:07;;;;;;;;;;;;;;;;;;5093736;28;20408;-71
2023/05/15 04:01:33;;;;;;;;;;;;;;;;;;5093394;28;20049;-71
2023/05/15 04:03:59;;;;;;;;;;;;;;;;;;5093918;28;19956;-70
2023/05/15 04:06:26;;;;;;;;;;;;;;;;;;5094257;28;19955;-71
2023/05/15 04:08:52;;;;;;;;;;;;;;;;;;5094212;28;20309;-70
2023/05/15 04:11:18;;;;;;;;;;;;;;;;;;5094201;28;19961;-70
2023/05/15 04:13:44;;;;;;;;;;;;;;;;;;5093621;28;20004;-70
2023/05/15 04:16:10;;;;;;;;;;;;;;;;;;5094108;28;19955;-71
2023/05/15 04:18:35;;;;;;;;;;;;;;;;;;5093560;28;19959;-70
2023/05/15 04:21:02;;;;;;;;;;;;;;;;;;5094125;28;19959;-71
2023/05/15 04:23:28;;;;;;;;;;;;;;;;;;5093489;28;19955;-70
2023/05/15 04:25:54;;;;;;;;;;;;;;;;;;5093794;28;20376;-70
2023/05/15 04:28:20;;;;;;;;;;;;;;;;;;5093472;28;19961;-71
2023/05/15 04:30:46;;;;;;;;;;;;;;;;;;5093699;28;20451;-70
2023/05/15 04:33:12;;;;;;;;;;;;;;;;;;5093764;28;19962;-71
2023/05/15 04:35:38;;;;;;;;;;;;;;;;;;5093479;28;19959;-70
2023/05/15 04:38:04;;;;;;;;;;;;;;;;;;5093922;28;19982;-71
2023/05/15 04:40:30;;;;;;;;;;;;;;;;;;5092981;28;20033;-71
2023/05/15 04:42:56;;;;;;;;;;;;;;;;;;5075216;28;19998;-70
2023/05/15 04:45:23;;;;;;;;;;;;;;;;;;5093388;28;19955;-70
2023/05/15 04:47:49;;;;;;;;;;;;;;;;;;5093891;28;20041;-70
2023/05/15 04:50:15;;;;;;;;;;;;;;;;;;5093594;28;19991;-70
2023/05/15 04:52:42;;;;;;;;;;;;;;;;;;5093307;28;19959;-70
2023/05/15 04:55:08;;;;;;;;;;;;;;;;;;5093873;28;19967;-70
2023/05/15 04:57:33;;;;;;;;;;;;;;;;;;5093194;28;19982;-71
2023/05/15 04:59:59;;;;;;;;;;;;;;;;;;5093512;28;19955;-71
2023/05/15 05:02:25;;;;;;;;;;;;;;;;;;5093222;28;20317;-70
2023/05/15 05:04:51;;;;;;;;;;;;;;;;;;5093138;28;19962;-70
2023/05/15 05:07:17;;;;;;;;;;;;;;;;;;5093422;28;20434;-70
2023/05/15 05:09:43;;;;;;;;;;;;;;;;;;5093644;28;19962;-71
2023/05/15 05:12:09;;;;;;;;;;;;;;;;;;5093403;28;19955;-70
2023/05/15 05:14:35;;;;;;;;;;;;;;;;;;5096041;28;20005;-71
2023/05/15 05:17:01;;;;;;;;;;;;;;;;;;5097213;28;20104;-71
2023/05/15 05:19:27;;;;;;;;;;;;;;;;;;5096615;28;19955;-70
2023/05/15 05:21:53;;;;;;;;;;;;;;;;;;5096890;28;19956;-70
2023/05/15 05:24:18;;;;;;;;;;;;;;;;;;5096550;28;19955;-71
2023/05/15 05:26:44;;;;;;;;;;;;;;;;;;5096779;28;19978;-71
2023/05/15 05:29:10;;;;;;;;;;;;;;;;;;5096437;28;20405;-71
2023/05/15 05:31:36;;;;;;;;;;;;;;;;;;5096330;28;20018;-70
2023/05/15 05:34:02;;;;;;;;;;;;;;;;;;5078195;28;20452;-70
2023/05/15 05:36:28;;;;;;;;;;;;;;;;;;5096549;28;19982;-70
2023/05/15 05:38:54;;;;;;;;;;;;;;;;;;5096047;28;20025;-71
2023/05/15 05:41:20;;;;;;;;;;;;;;;;;;5077734;28;20024;-71
2023/05/15 05:43:46;;;;;;;;;;;;;;;;;;5096763;28;20021;-71
2023/05/15 05:46:12;;;;;;;;;;;;;;;;;;5096061;28;20423;-70
2023/05/15 05:48:38;;;;;;;;;;;;;;;;;;5096383;28;20038;-71
2023/05/15 05:51:04;;;;;;;;;;;;;;;;;;5096322;28;20438;-71
2023/05/15 05:53:30;;;;;;;;;;;;;;;;;;5095955;28;20404;-71
2023/05/15 05:55:55;;;;;;;;;;;;;;;;;;5077627;28;19969;-70
2023/05/15 05:58:21;;;;;;;;;;;;;;;;;;5095886;28;19956;-71
2023/05/15 06:00:47;;;;;;;;;;;;;;;;;;5095848;28;19955;-71
2023/05/15 06:03:13;;;;;;;;;;;;;;;;;;5096040;28;19962;-71
2023/05/15 06:05:39;;;;;;;;;;;;;;;;;;5096042;28;19991;-71
2023/05/15 06:08:05;;;;;;;;;;;;;;;;;;5095980;28;20474;-71
2023/05/15 06:10:31;;;;;;;;;;;;;;;;;;5096154;28;19956;-71
2023/05/15 06:12:57;;;;;;;;;;;;;;;;;;5095883;28;19967;-70
2023/05/15 06:15:23;;;;;;;;;;;;;;;;;;5095519;28;20305;-70
2023/05/15 06:17:49;;;;;;;;;;;;;;;;;;5095431;28;19982;-70
2023/05/15 06:20:15;;;;;;;;;;;;;;;;;;5095708;28;19956;-71
2023/05/15 06:22:41;;;;;;;;;;;;;;;;;;5095397;28;19955;-71
2023/05/15 06:25:07;;;;;;;;;;;;;;;;;;5094719;28;20033;-71
2023/05/15 06:27:33;;;;;;;;;;;;;;;;;;5077117;28;20334;-70
2023/05/15 06:29:58;;;;;;;;;;;;;;;;;;5095250;28;19955;-71
2023/05/15 06:32:24;;;;;;;;;;;;;;;;;;5095185;28;19971;-71
2023/05/15 06:34:50;;;;;;;;;;;;;;;;;;5095710;28;20408;-71
2023/05/15 06:37:17;;;;;;;;;;;;;;;;;;5094986;28;19982;-71
2023/05/15 06:39:43;;;;;;;;;;;;;;;;;;5087963;28;20001;-71
2023/05/15 06:42:09;;;;;;;;;;;;;;;;;;5115370;28;20041;-71
2023/05/15 06:44:35;;;;;;;;;;;;;;;;;;5115333;28;19962;-71
2023/05/15 06:47:01;;;;;;;;;;;;;;;;;;5115584;28;19961;-71
2023/05/15 06:49:27;;;;;;;;;;;;;;;;;;5115222;28;20003;-71
2023/05/15 06:51:53;;;;;;;;;;;;;;;;;;5096860;28;19959;-70
2023/05/15 06:54:21;;;;;;;;;;;;;;;;;;5114401;28;20293;-71
2023/05/15 06:56:47;;;;;;;;;;;;;;;;;;5115342;28;19999;-71
2023/05/15 06:59:13;;;;;;;;;;;;;;;;;;5096751;28;20332;-71
2023/05/15 07:01:39;;;;;;;;;;;;;;;;;;5096468;28;19998;-78
2023/05/15 07:04:05;;;;;;;;;;;;;;;;;;5087188;28;20006;-71
2023/05/15 07:06:31;;;;;;;;;;;;;;;;;;5094874;28;19955;-72
2023/05/15 07:08:57;;;;;;;;;;;;;;;;;;5094537;28;20058;-72
2023/05/15 07:11:23;;;;;;;;;;;;;;;;;;5094004;28;19991;-73
2023/05/15 07:13:49;;;;;;;;;;;;;;;;;;5094733;28;20400;-76
2023/05/15 07:16:15;;;;;;;;;;;;;;;;;;5093567;28;19962;-73
2023/05/15 07:18:41;;;;;;;;;;;;;;;;;;5094142;28;20440;-75
2023/05/15 07:21:07;;;;;;;;;;;;;;;;;;5093930;28;20008;-76
2023/05/15 07:23:33;;;;;;;;;;;;;;;;;;5093463;28;20384;-73
2023/05/15 07:25:59;;;;;;;;;;;;;;;;;;5093927;28;19966;-72
2023/05/15 07:28:25;;;;;;;;;;;;;;;;;;5094479;28;19956;-72
2023/05/15 07:30:51;;;;;;;;;;;;;;;;;;5094178;28;20344;-74
2023/05/15 07:33:17;;;;;;;;;;;;;;;;;;5074828;28;20340;-75
2023/05/15 07:35:43;;;;;;;;;;;;;;;;;;5094036;28;19962;-75
2023/05/15 07:38:09;;;;;;;;;;;;;;;;;;5092568;28;19986;-75
2023/05/15 07:40:35;;;;;;;;;;;;;;;;;;5093788;28;20417;-75
2023/05/15 07:43:01;;;;;;;;;;;;;;;;;;5094713;28;20054;-74
2023/05/15 07:45:27;;;;;;;;;;;;;;;;;;5076636;28;19963;-76
2023/05/15 07:47:53;;;;;;;;;;;;;;;;;;5113871;28;19959;-74
2023/05/15 07:50:19;;;;;;;;;;;;;;;;;;5113145;28;20352;-75
2023/05/15 07:52:45;;;;;;;;;;;;;;;;;;5095462;28;19959;-72
2023/05/15 07:55:11;;;;;;;;;;;;;;;;;;5113705;28;20061;-74
2023/05/15 07:57:38;;;;;;;;;;;;;;;;;;5113257;28;19974;-73
2023/05/15 08:00:09;;;;;;;;;;;;;;;;;;5113781;28;19959;-74
2023/05/15 08:02:35;;;;;;;;;;;;;;;;;;5113856;28;19970;-72
2023/05/15 08:05:01;;;;;;;;;;;;;;;;;;5113594;28;19963;-72
2023/05/15 08:07:27;;;;;;;;;;;;;;;;;;5094785;28;20014;-73
2023/05/15 08:09:53;;;;;;;;;;;;;;;;;;5114539;28;19961;-73
2023/05/15 08:12:22;;;;;;;;;;;;;;;;;;5114294;28;19961;-72
2023/05/15 08:14:48;;;;;;;;;;;;;;;;;;5114239;28;20008;-72
2023/05/15 08:17:14;;;;;;;;;;;;;;;;;;5114427;28;19974;-73
2023/05/15 08:19:40;;;;;;;;;;;;;;;;;;5114078;28;19955;-72
2023/05/15 08:22:06;;;;;;;;;;;;;;;;;;5095605;28;19965;-72
2023/05/15 08:24:32;;;;;;;;;;;;;;;;;;5113701;28;19965;-72
2023/05/15 08:26:58;;;;;;;;;;;;;;;;;;5112513;28;20005;-72
2023/05/15 08:29:24;;;;;;;;;;;;;;;;;;5110478;28;20448;-72
2023/05/15 08:31:50;;;;;;;;;;;;;;;;;;5113695;28;19971;-73
2023/05/15 08:34:16;;;;;;;;;;;;;;;;;;5113800;28;20033;-72
2023/05/15 08:36:43;;;;;;;;;;;;;;;;;;5113098;28;19979;-77
2023/05/15 08:39:09;;;;;;;;;;;;;;;;;;5113997;28;20410;-73
2023/05/15 08:41:35;;;;;;;;;;;;;;;;;;5113240;28;19967;-72
2023/05/15 08:44:01;;;;;;;;;;;;;;;;;;5113294;28;20012;-71
2023/05/15 08:46:26;;;;;;;;;;;;;;;;;;5111859;28;20436;-72
2023/05/15 08:48:52;;;;;;;;;;;;;;;;;;5112583;28;20046;-72
2023/05/15 08:51:18;;;;;;;;;;;;;;;;;;5115597;28;19977;-72
2023/05/15 08:53:44;;;;;;;;;;;;;;;;;;5115802;28;19955;-70
2023/05/15 08:56:10;;;;;;;;;;;;;;;;;;5115940;28;19955;-71
2023/05/15 08:58:36;;;;;;;;;;;;;;;;;;5115307;28;19977;-73
2023/05/15 09:01:02;;;;;;;;;;;;;;;;;;5115808;28;20015;-75
2023/05/15 09:03:28;;;;;;;;;;;;;;;;;;5117469;28;19954;-76
2023/05/15 09:05:54;;;;;;;;;;;;;;;;;;5117213;28;19955;-72
2023/05/15 09:08:19;;;;;;;;;;;;;;;;;;5117308;28;20006;-75
2023/05/15 09:10:45;;;;;;;;;;;;;;;;;;5117632;28;20432;-76
2023/05/15 09:13:11;;;;;;;;;;;;;;;;;;5117302;28;20031;-77
2023/05/15 09:15:37;;;;;;;;;;;;;;;;;;5116593;28;19962;-74
2023/05/15 09:18:03;;;;;;;;;;;;;;;;;;5116536;28;19979;-74
2023/05/15 09:20:29;;;;;;;;;;;;;;;;;;5116356;28;19989;-75
2023/05/15 09:22:55;;;;;;;;;;;;;;;;;;5097963;28;19959;-75
2023/05/15 09:25:21;;;;;;;;;;;;;;;;;;5116558;28;19994;-72
2023/05/15 09:27:47;;;;;;;;;;;;;;;;;;5116448;28;19962;-72
2023/05/15 09:30:13;;;;;;;;;;;;;;;;;;5115559;28;19963;-73
2023/05/15 09:32:39;;;;;;;;;;;;;;;;;;5114596;28;20477;-72
2023/05/15 09:35:05;;;;;;;;;;;;;;;;;;5115757;28;19971;-71
2023/05/15 09:37:31;;;;;;;;;;;;;;;;;;5116261;28;19975;-71
2023/05/15 09:39:56;;;;;;;;;;;;;;;;;;5115612;28;20001;-73
2023/05/15 09:42:22;;;;;;;;;;;;;;;;;;5096542;28;19955;-73
2023/05/15 09:44:48;;;;;;;;;;;;;;;;;;5115966;28;20013;-74
2023/05/15 09:47:16;;;;;;;;;;;;;;;;;;5115607;28;19959;-73
2023/05/15 09:49:42;;;;;;;;;;;;;;;;;;5098711;28;19958;-74
2023/05/15 09:52:08;;;;;;;;;;;;;;;;;;5115434;28;20108;-74
2023/05/15 09:54:34;;;;;;;;;;;;;;;;;;5097728;28;19965;-76
2023/05/15 09:57:00;;;;;;;;;;;;;;;;;;5115906;28;19982;-76
2023/05/15 09:59:26;;;;;;;;;;;;;;;;;;5115221;28;20485;-81
2023/05/15 10:01:52;;;;;;;;;;;;;;;;;;5114509;28;19955;-77
2023/05/15 10:04:18;;;;;;;;;;;;;;;;;;5116177;28;20352;-76
2023/05/15 10:06:43;;;;;;;;;;;;;;;;;;5115550;28;19963;-77
2023/05/15 10:09:09;;;;;;;;;;;;;;;;;;5116869;28;19954;-76
2023/05/15 10:11:35;;;;;;;;;;;;;;;;;;5116064;28;19990;-78
2023/05/15 10:14:01;;;;;;;;;;;;;;;;;;5115542;28;20016;-74
2023/05/15 10:16:27;;;;;;;;;;;;;;;;;;5115330;28;20347;-75
2023/05/15 10:18:53;;;;;;;;;;;;;;;;;;5097574;28;20016;-73
2023/05/15 10:21:19;;;;;;;;;;;;;;;;;;5096939;28;19966;-73
2023/05/15 10:23:45;;;;;;;;;;;;;;;;;;5106846;28;20469;-74
2023/05/15 10:26:11;;;;;;;;;;;;;;;;;;5115455;28;19959;-73
2023/05/15 10:28:37;;;;;;;;;;;;;;;;;;5114728;28;19965;-71
2023/05/15 10:31:03;;;;;;;;;;;;;;;;;;5114412;28;20504;-70
2023/05/15 10:33:29;;;;;;;;;;;;;;;;;;5114561;28;20377;-71
2023/05/15 10:35:55;;;;;;;;;;;;;;;;;;5113379;28;20046;-71
2023/05/15 10:38:21;;;;;;;;;;;;;;;;;;5113188;28;20324;-71
2023/05/15 10:40:47;;;;;;;;;;;;;;;;;;5114991;28;19991;-71
2023/05/15 10:43:12;;;;;;;;;;;;;;;;;;5114761;28;19969;-72
2023/05/15 10:45:38;;;;;;;;;;;;;;;;;;5115133;28;19955;-71
2023/05/15 10:48:06;;;;;;;;;;;;;;;;;;5115909;28;20421;-70
2023/05/15 10:50:32;;;;;;;;;;;;;;;;;;5115306;28;20034;-71
2023/05/15 10:52:58;;;;;;;;;;;;;;;;;;5115233;28;20001;-71
2023/05/15 10:55:24;;;;;;;;;;;;;;;;;;5115191;28;19955;-71
2023/05/15 10:57:50;;;;;;;;;;;;;;;;;;5115106;28;19975;-70
2023/05/15 11:00:16;;;;;;;;;;;;;;;;;;5115600;28;19965;-71
2023/05/15 11:02:42;;;;;;;;;;;;;;;;;;5115297;28;19955;-70
2023/05/15 11:05:08;;;;;;;;;;;;;;;;;;5115261;28;19955;-71
2023/05/15 11:07:34;;;;;;;;;;;;;;;;;;5114916;28;19962;-71
2023/05/15 11:10:00;;;;;;;;;;;;;;;;;;5115452;28;20435;-70
2023/05/15 11:12:26;;;;;;;;;;;;;;;;;;5114666;28;19966;-71
2023/05/15 11:14:52;;;;;;;;;;;;;;;;;;5114723;28;19955;-71
2023/05/15 11:17:18;;;;;;;;;;;;;;;;;;5114552;28;19982;-70
2023/05/15 11:19:44;;;;;;;;;;;;;;;;;;5114727;28;19961;-71
2023/05/15 11:22:10;;;;;;;;;;;;;;;;;;5114946;28;20004;-71
2023/05/15 11:24:36;;;;;;;;;;;;;;;;;;5114577;28;19963;-71
2023/05/15 11:27:02;;;;;;;;;;;;;;;;;;5114552;28;19955;-70
2023/05/15 11:29:28;;;;;;;;;;;;;;;;;;5114815;28;20393;-70
2023/05/15 11:31:54;;;;;;;;;;;;;;;;;;5114414;28;19971;-71
2023/05/15 11:34:19;;;;;;;;;;;;;;;;;;5114469;28;19959;-70
2023/05/15 11:36:46;;;;;;;;;;;;;;;;;;5114657;28;20028;-70
2023/05/15 11:39:12;;;;;;;;;;;;;;;;;;5095843;28;19995;-71
2023/05/15 11:41:38;;;;;;;;;;;;;;;;;;5114643;28;20040;-71
2023/05/15 11:44:04;;;;;;;;;;;;;;;;;;5114348;28;20430;-71
2023/05/15 11:46:30;;;;;;;;;;;;;;;;;;5114814;28;20045;-70
2023/05/15 11:48:56;;;;;;;;;;;;;;;;;;5114249;28;19959;-70
2023/05/15 11:51:22;;;;;;;;;;;;;;;;;;5114507;28;19977;-71
2023/05/15 11:53:48;;;;;;;;;;;;;;;;;;5114209;28;20042;-71
2023/05/15 11:56:15;;;;;;;;;;;;;;;;;;5114623;28;19994;-70
2023/05/15 11:58:40;;;;;;;;;;;;;;;;;;5114137;28;19954;-71
2023/05/15 12:01:06;;;;;;;;;;;;;;;;;;5114402;28;19959;-71
2023/05/15 12:03:32;;;;;;;;;;;;;;;;;;5114039;28;19978;-70
2023/05/15 12:05:58;;;;;;;;;;;;;;;;;;5113878;28;19955;-69
2023/05/15 12:08:24;;;;;;;;;;;;;;;;;;5113677;28;19973;-73
2023/05/15 12:10:50;;;;;;;;;;;;;;;;;;5114899;28;19997;-72
2023/05/15 12:13:16;;;;;;;;;;;;;;;;;;5113483;28;19973;-72
2023/05/15 12:15:42;;;;;;;;;;;;;;;;;;5113767;28;20037;-73
2023/05/15 12:18:08;;;;;;;;;;;;;;;;;;5112191;28;19978;-72
2023/05/15 12:20:34;;;;;;;;;;;;;;;;;;5113788;28;20333;-71
2023/05/15 12:22:59;;;;;;;;;;;;;;;;;;5114246;28;20050;-73
2023/05/15 12:25:25;;;;;;;;;;;;;;;;;;5118228;28;20337;-72
2023/05/15 12:27:51;;;;;;;;;;;;;;;;;;5118266;28;19959;-76
2023/05/15 12:30:17;;;;;;;;;;;;;;;;;;5100176;28;20308;-78
2023/05/15 12:32:43;;;;;;;;;;;;;;;;;;5118113;28;20366;-77
2023/05/15 12:35:09;;;;;;;;;;;;;;;;;;5118205;28;19962;-77
2023/05/15 12:37:35;;;;;;;;;;;;;;;;;;5118264;28;19979;-74
2023/05/15 12:40:01;;;;;;;;;;;;;;;;;;5117123;28;20039;-75
2023/05/15 12:42:27;;;;;;;;;;;;;;;;;;5118279;28;19954;-72
2023/05/15 12:44:53;;;;;;;;;;;;;;;;;;5117970;28;19955;-73
2023/05/15 12:47:19;;;;;;;;;;;;;;;;;;5117409;28;19979;-71
2023/05/15 12:49:45;;;;;;;;;;;;;;;;;;5118116;28;19963;-72
2023/05/15 12:52:12;;;;;;;;;;;;;;;;;;5117385;28;19962;-72
2023/05/15 12:54:38;;;;;;;;;;;;;;;;;;5098999;28;20335;-74
2023/05/15 12:57:04;;;;;;;;;;;;;;;;;;5118130;28;19975;-72
2023/05/15 12:59:30;;;;;;;;;;;;;;;;;;5099498;28;19958;-71
2023/05/15 13:01:56;;;;;;;;;;;;;;;;;;5117442;28;19966;-72
2023/05/15 13:04:22;;;;;;;;;;;;;;;;;;5098741;28;20012;-76
2023/05/15 13:06:48;;;;;;;;;;;;;;;;;;5116911;28;20008;-72
2023/05/15 13:09:14;;;;;;;;;;;;;;;;;;5117230;28;20361;-76
2023/05/15 13:11:40;;;;;;;;;;;;;;;;;;5117498;28;19965;-72
2023/05/15 13:14:05;;;;;;;;;;;;;;;;;;5117485;28;20041;-73
2023/05/15 13:16:31;;;;;;;;;;;;;;;;;;5117015;28;19959;-72
2023/05/15 13:18:57;;;;;;;;;;;;;;;;;;5116739;28;19973;-73
2023/05/15 13:21:23;;;;;;;;;;;;;;;;;;5117045;28;19959;-73
2023/05/15 13:23:49;;;;;;;;;;;;;;;;;;5116695;28;19967;-75
2023/05/15 13:26:15;;;;;;;;;;;;;;;;;;5116667;28;19967;-71
2023/05/15 13:28:41;;;;;;;;;;;;;;;;;;5116511;28;20424;-73
2023/05/15 13:31:07;;;;;;;;;;;;;;;;;;5117357;28;20016;-71
2023/05/15 13:33:34;;;;;;;;;;;;;;;;;;5117366;28;20388;-75
2023/05/15 13:36:00;;;;;;;;;;;;;;;;;;5116679;28;20076;-74
2023/05/15 13:38:26;;;;;;;;;;;;;;;;;;5115969;28;20073;-75
2023/05/15 13:40:52;;;;;;;;;;;;;;;;;;5115740;28;20423;-72
2023/05/15 13:43:18;;;;;;;;;;;;;;;;;;5116098;28;19969;-74
2023/05/15 13:45:44;;;;;;;;;;;;;;;;;;5116255;28;19958;-73
2023/05/15 13:48:10;;;;;;;;;;;;;;;;;;5116103;28;20480;-71
2023/05/15 13:50:36;;;;;;;;;;;;;;;;;;5116492;28;20436;-70
2023/05/15 13:53:01;;;;;;;;;;;;;;;;;;5115552;28;19962;-75
2023/05/15 13:55:27;;;;;;;;;;;;;;;;;;5116321;28;19955;-73
2023/05/15 13:57:53;;;;;;;;;;;;;;;;;;5116309;28;20423;-72
2023/05/15 14:00:19;;;;;;;;;;;;;;;;;;5106351;28;19963;-72
2023/05/15 14:02:45;;;;;;;;;;;;;;;;;;5114072;28;19965;-72
2023/05/15 14:05:11;;;;;;;;;;;;;;;;;;5117067;28;19980;-74
2023/05/15 14:07:37;;;;;;;;;;;;;;;;;;5115483;28;19959;-74
2023/05/15 14:10:03;;;;;;;;;;;;;;;;;;5116236;28;19969;-72
2023/05/15 14:12:29;;;;;;;;;;;;;;;;;;5115040;28;19965;-72
2023/05/15 14:14:55;;;;;;;;;;;;;;;;;;5116359;28;19955;-74
2023/05/15 14:17:22;;;;;;;;;;;;;;;;;;5115384;28;20335;-74
2023/05/15 14:19:48;;;;;;;;;;;;;;;;;;5113669;28;19962;-72
2023/05/15 14:22:14;;;;;;;;;;;;;;;;;;5116214;28;19955;-77
2023/05/15 14:24:40;;;;;;;;;;;;;;;;;;5115664;28;19954;-73
2023/05/15 14:27:06;;;;;;;;;;;;;;;;;;5095965;28;19985;-72
2023/05/15 14:29:32;;;;;;;;;;;;;;;;;;5115843;28;19966;-72
2023/05/15 14:31:57;;;;;;;;;;;;;;;;;;5115662;28;19979;-77
2023/05/15 14:34:23;;;;;;;;;;;;;;;;;;5114969;28;20422;-73
2023/05/15 14:36:49;;;;;;;;;;;;;;;;;;5114295;28;20084;-71
2023/05/15 14:39:15;;;;;;;;;;;;;;;;;;5114943;28;19990;-75
2023/05/15 14:41:41;;;;;;;;;;;;;;;;;;5115729;28;19962;-73
2023/05/15 14:44:07;;;;;;;;;;;;;;;;;;5114429;28;20470;-74
2023/05/15 14:46:35;;;;;;;;;;;;;;;;;;5115337;28;19962;-71
2023/05/15 14:49:01;;;;;;;;;;;;;;;;;;5097296;28;19958;-73
2023/05/15 14:51:27;;;;;;;;;;;;;;;;;;5115170;28;19967;-75
2023/05/15 14:53:52;;;;;;;;;;;;;;;;;;5115048;28;20364;-73
2023/05/15 14:56:18;;;;;;;;;;;;;;;;;;5115522;28;19990;-73
2023/05/15 14:58:45;;;;;;;;;;;;;;;;;;5114116;28;19985;-77
2023/05/15 15:01:11;;;;;;;;;;;;;;;;;;5114534;28;20512;-76
2023/05/15 15:03:37;;;;;;;;;;;;;;;;;;5112995;28;19963;-75
2023/05/15 15:06:03;;;;;;;;;;;;;;;;;;5110433;28;19959;-77
2023/05/15 15:08:29;;;;;;;;;;;;;;;;;;5095756;28;19962;-76
2023/05/15 15:10:55;;;;;;;;;;;;;;;;;;5115352;28;19959;-76
2023/05/15 15:13:21;;;;;;;;;;;;;;;;;;5114223;28;20424;-75
2023/05/15 15:15:47;;;;;;;;;;;;;;;;;;5114755;28;19963;-72
2023/05/15 15:18:13;;;;;;;;;;;;;;;;;;5114390;28;19978;-72
2023/05/15 15:20:39;;;;;;;;;;;;;;;;;;5095701;28;20452;-73
2023/05/15 15:23:05;;;;;;;;;;;;;;;;;;5094128;28;20317;-73
2023/05/15 15:25:31;;;;;;;;;;;;;;;;;;5113290;28;20076;-73
2023/05/15 15:27:57;;;;;;;;;;;;;;;;;;5113612;28;20405;-72
2023/05/15 15:30:22;;;;;;;;;;;;;;;;;;5113649;28;19994;-72
2023/05/15 15:32:48;;;;;;;;;;;;;;;;;;5114096;28;20426;-73
2023/05/15 15:35:14;;;;;;;;;;;;;;;;;;5114188;28;19955;-72
2023/05/15 15:37:40;;;;;;;;;;;;;;;;;;5114667;28;20017;-72
2023/05/15 15:40:06;;;;;;;;;;;;;;;;;;5114259;28;20001;-73
2023/05/15 15:42:32;;;;;;;;;;;;;;;;;;5114991;28;20286;-71
2023/05/15 15:44:58;;;;;;;;;;;;;;;;;;5114304;28;19962;-72
2023/05/15 15:47:25;;;;;;;;;;;;;;;;;;5114561;28;19962;-72
2023/05/15 15:49:50;;;;;;;;;;;;;;;;;;5114304;28;19978;-72
2023/05/15 15:52:16;;;;;;;;;;;;;;;;;;5114788;28;20432;-72
2023/05/15 15:54:45;;;;;;;;;;;;;;;;;;5114478;28;19962;-72
2023/05/15 15:57:11;;;;;;;;;;;;;;;;;;5113651;28;20347;-72
2023/05/15 15:59:37;;;;;;;;;;;;;;;;;;5113793;28;19955;-72
2023/05/15 16:02:03;;;;;;;;;;;;;;;;;;5114073;28;19977;-72
2023/05/15 16:04:29;;;;;;;;;;;;;;;;;;5114110;28;19962;-72
2023/05/15 16:06:55;;;;;;;;;;;;;;;;;;5114368;28;19955;-72
2023/05/15 16:09:22;;;;;;;;;;;;;;;;;;5114066;28;19955;-72
2023/05/15 16:11:48;;;;;;;;;;;;;;;;;;5114628;28;19994;-72
2023/05/15 16:14:13;;;;;;;;;;;;;;;;;;5095817;28;19966;-72
2023/05/15 16:16:39;;;;;;;;;;;;;;;;;;5113937;28;19978;-72
2023/05/15 16:19:05;;;;;;;;;;;;;;;;;;5114626;28;19959;-72
2023/05/15 16:21:31;;;;;;;;;;;;;;;;;;5113981;28;20015;-72
2023/05/15 16:23:57;;;;;;;;;;;;;;;;;;5113886;28;19958;-71
2023/05/15 16:26:23;;;;;;;;;;;;;;;;;;5114167;28;19954;-72
2023/05/15 16:28:49;;;;;;;;;;;;;;;;;;5095413;28;19966;-72
2023/05/15 16:31:15;;;;;;;;;;;;;;;;;;5113788;28;19971;-72
2023/05/15 16:33:41;;;;;;;;;;;;;;;;;;5114128;28;19961;-72
2023/05/15 16:36:08;;;;;;;;;;;;;;;;;;5113820;28;19966;-72